createdAt,value
2017-06-03T00:00:14.156Z,1004.74
2017-06-03T00:01:15.583Z,1004.71
2017-06-03T00:02:17.014Z,1004.71
2017-06-03T00:03:18.438Z,1004.72
2017-06-03T00:04:19.866Z,1004.72
2017-06-03T00:05:21.295Z,1004.70
2017-06-03T00:06:22.729Z,1004.68
2017-06-03T00:07:24.157Z,1004.66
2017-06-03T00:08:25.584Z,1004.60
2017-06-03T00:09:27.013Z,1004.64
2017-06-03T00:10:28.437Z,1004.67
2017-06-03T00:11:29.864Z,1004.65
2017-06-03T00:12:31.298Z,1004.65
2017-06-03T00:13:32.725Z,1004.63
2017-06-03T00:14:34.156Z,1004.63
2017-06-03T00:15:35.588Z,1004.57
2017-06-03T00:16:37.027Z,1004.62
2017-06-03T00:17:38.455Z,1004.59
2017-06-03T00:18:39.886Z,1004.58
2017-06-03T00:19:41.315Z,1004.54
2017-06-03T00:20:42.739Z,1004.53
2017-06-03T00:21:44.163Z,1004.52
2017-06-03T00:22:45.589Z,1004.53
2017-06-03T00:23:47.030Z,1004.47
2017-06-03T00:24:48.460Z,1004.48
2017-06-03T00:25:49.889Z,1004.44
2017-06-03T00:26:51.331Z,1004.47
2017-06-03T00:27:52.756Z,1004.44
2017-06-03T00:28:54.184Z,1004.46
2017-06-03T00:29:55.611Z,1004.37
2017-06-03T00:30:57.045Z,1004.38
2017-06-03T00:31:58.483Z,1004.45
2017-06-03T00:32:59.912Z,1004.39
2017-06-03T00:34:01.343Z,1004.37
2017-06-03T00:35:02.862Z,1004.34
2017-06-03T00:36:04.287Z,1004.26
2017-06-03T00:37:05.719Z,1004.29
2017-06-03T00:38:07.147Z,1004.28
2017-06-03T00:39:08.585Z,1004.24
2017-06-03T00:40:10.005Z,1004.24
2017-06-03T00:41:11.439Z,1004.22
2017-06-03T00:42:12.870Z,1004.23
2017-06-03T00:43:14.293Z,1004.22
2017-06-03T00:44:15.729Z,1004.18
2017-06-03T00:45:17.159Z,1004.20
2017-06-03T00:46:18.594Z,1004.22
2017-06-03T00:47:20.037Z,1004.18
2017-06-03T00:48:21.462Z,1004.19
2017-06-03T00:49:22.900Z,1004.18
2017-06-03T00:50:24.324Z,1004.16
2017-06-03T00:51:25.755Z,1004.14
2017-06-03T00:52:27.187Z,1004.20
2017-06-03T00:53:28.609Z,1004.18
2017-06-03T00:54:30.038Z,1004.20
2017-06-03T00:55:31.470Z,1004.16
2017-06-03T00:56:32.895Z,1004.16
2017-06-03T00:57:34.361Z,1004.12
2017-06-03T00:58:36.061Z,1004.13
2017-06-03T00:59:37.530Z,1004.10
2017-06-03T01:00:38.966Z,1004.05
2017-06-03T01:01:40.392Z,1004.10
2017-06-03T01:02:41.819Z,1004.06
2017-06-03T01:03:43.256Z,1004.09
2017-06-03T01:04:44.682Z,1004.12
2017-06-03T01:05:46.117Z,1004.11
2017-06-03T01:06:47.549Z,1004.06
2017-06-03T01:07:48.982Z,1004.00
2017-06-03T01:08:50.403Z,1004.02
2017-06-03T01:09:51.828Z,1004.04
2017-06-03T01:10:53.259Z,1004.06
2017-06-03T01:11:54.680Z,1004.03
2017-06-03T01:12:56.104Z,1004.07
2017-06-03T01:13:57.537Z,1004.03
2017-06-03T01:14:58.966Z,1004.07
2017-06-03T01:16:00.394Z,1004.06
2017-06-03T01:17:01.816Z,1004.06
2017-06-03T01:18:03.249Z,1004.03
2017-06-03T01:19:04.676Z,1004.04
2017-06-03T01:20:06.102Z,1004.05
2017-06-03T01:21:07.525Z,1003.99
2017-06-03T01:22:08.953Z,1004.03
2017-06-03T01:23:10.381Z,1004.03
2017-06-03T01:24:11.809Z,1004.04
2017-06-03T01:25:13.242Z,1004.07
2017-06-03T01:26:14.670Z,1004.09
2017-06-03T01:27:16.096Z,1004.05
2017-06-03T01:28:17.525Z,1004.05
2017-06-03T01:29:18.953Z,1004.07
2017-06-03T01:30:20.382Z,1004.03
2017-06-03T01:31:21.807Z,1004.06
2017-06-03T01:32:23.239Z,1004.12
2017-06-03T01:33:24.670Z,1004.11
2017-06-03T01:34:26.099Z,1004.14
2017-06-03T01:35:27.527Z,1004.13
2017-06-03T01:36:28.954Z,1004.16
2017-06-03T01:37:30.383Z,1004.15
2017-06-03T01:38:31.806Z,1004.15
2017-06-03T01:39:33.234Z,1004.12
2017-06-03T01:40:34.659Z,1004.12
2017-06-03T01:41:36.084Z,1004.13
2017-06-03T01:42:37.519Z,1004.10
2017-06-03T01:43:38.948Z,1004.11
2017-06-03T01:44:40.373Z,1004.05
2017-06-03T01:45:41.803Z,1004.08
2017-06-03T01:46:43.239Z,1004.04
2017-06-03T01:47:44.674Z,1004.03
2017-06-03T01:48:46.105Z,1004.01
2017-06-03T01:49:47.536Z,1003.98
2017-06-03T01:50:48.965Z,1003.98
2017-06-03T01:51:50.392Z,1004.02
2017-06-03T01:52:51.819Z,1004.00
2017-06-03T01:53:53.246Z,1004.01
2017-06-03T01:54:54.676Z,1004.06
2017-06-03T01:55:56.106Z,1004.01
2017-06-03T01:56:57.529Z,1004.01
2017-06-03T01:57:58.962Z,1003.99
2017-06-03T01:59:00.397Z,1004.01
2017-06-03T02:00:02.579Z,1003.99
2017-06-03T02:01:04.008Z,1004.00
2017-06-03T02:02:05.475Z,1003.97
2017-06-03T02:03:06.895Z,1004.01
2017-06-03T02:04:08.322Z,1003.95
2017-06-03T02:05:09.751Z,1003.95
2017-06-03T02:06:11.176Z,1003.97
2017-06-03T02:07:12.615Z,1003.94
2017-06-03T02:08:14.044Z,1003.93
2017-06-03T02:09:15.464Z,1003.90
2017-06-03T02:10:16.894Z,1003.87
2017-06-03T02:11:18.319Z,1003.94
2017-06-03T02:12:19.751Z,1003.92
2017-06-03T02:13:21.172Z,1003.88
2017-06-03T02:14:22.608Z,1003.93
2017-06-03T02:15:24.047Z,1003.96
2017-06-03T02:16:25.473Z,1004.01
2017-06-03T02:17:26.895Z,1003.97
2017-06-03T02:18:28.316Z,1003.97
2017-06-03T02:19:29.746Z,1003.95
2017-06-03T02:20:31.179Z,1003.94
2017-06-03T02:21:32.600Z,1003.92
2017-06-03T02:22:34.027Z,1003.91
2017-06-03T02:23:35.450Z,1003.86
2017-06-03T02:24:36.879Z,1003.91
2017-06-03T02:25:38.301Z,1003.91
2017-06-03T02:26:39.734Z,1003.89
2017-06-03T02:27:41.156Z,1003.91
2017-06-03T02:28:42.588Z,1003.89
2017-06-03T02:29:44.012Z,1003.87
2017-06-03T02:30:45.444Z,1003.85
2017-06-03T02:31:46.872Z,1003.83
2017-06-03T02:32:48.302Z,1003.84
2017-06-03T02:33:49.726Z,1003.84
2017-06-03T02:34:51.174Z,1003.82
2017-06-03T02:35:52.602Z,1003.84
2017-06-03T02:36:54.026Z,1003.82
2017-06-03T02:37:55.454Z,1003.80
2017-06-03T02:38:56.882Z,1003.77
2017-06-03T02:39:58.302Z,1003.81
2017-06-03T02:40:59.732Z,1003.76
2017-06-03T02:42:01.158Z,1003.81
2017-06-03T02:43:02.584Z,1003.77
2017-06-03T02:44:04.027Z,1003.78
2017-06-03T02:45:05.461Z,1003.81
2017-06-03T02:46:07.612Z,1003.78
2017-06-03T02:47:09.045Z,1003.76
2017-06-03T02:48:10.473Z,1003.78
2017-06-03T02:49:11.899Z,1003.78
2017-06-03T02:50:13.329Z,1003.81
2017-06-03T02:51:14.758Z,1003.79
2017-06-03T02:52:16.184Z,1003.82
2017-06-03T02:53:17.610Z,1003.79
2017-06-03T02:54:19.082Z,1003.85
2017-06-03T02:55:20.506Z,1003.87
2017-06-03T02:56:21.933Z,1003.84
2017-06-03T02:57:23.366Z,1003.86
2017-06-03T02:58:24.789Z,1003.82
2017-06-03T02:59:26.214Z,1003.81
2017-06-03T03:00:27.644Z,1003.77
2017-06-03T03:01:29.069Z,1003.80
2017-06-03T03:02:30.495Z,1003.79
2017-06-03T03:03:31.923Z,1003.78
2017-06-03T03:04:33.354Z,1003.77
2017-06-03T03:05:34.794Z,1003.77
2017-06-03T03:06:36.336Z,1003.77
2017-06-03T03:07:37.770Z,1003.78
2017-06-03T03:08:39.192Z,1003.80
2017-06-03T03:09:40.625Z,1003.79
2017-06-03T03:10:42.056Z,1003.81
2017-06-03T03:11:43.489Z,1003.80
2017-06-03T03:12:44.913Z,1003.81
2017-06-03T03:13:46.343Z,1003.80
2017-06-03T03:14:47.780Z,1003.85
2017-06-03T03:15:49.203Z,1003.83
2017-06-03T03:16:50.632Z,1003.80
2017-06-03T03:17:52.063Z,1003.85
2017-06-03T03:18:53.488Z,1003.87
2017-06-03T03:19:54.915Z,1003.85
2017-06-03T03:20:56.340Z,1003.82
2017-06-03T03:21:57.774Z,1003.84
2017-06-03T03:22:59.208Z,1003.83
2017-06-03T03:24:00.635Z,1003.83
2017-06-03T03:25:02.064Z,1003.84
2017-06-03T03:26:03.494Z,1003.86
2017-06-03T03:27:04.923Z,1003.89
2017-06-03T03:28:06.345Z,1003.85
2017-06-03T03:29:07.771Z,1003.88
2017-06-03T03:30:09.203Z,1003.89
2017-06-03T03:31:10.640Z,1003.93
2017-06-03T03:32:12.072Z,1003.90
2017-06-03T03:33:13.497Z,1003.90
2017-06-03T03:34:14.925Z,1003.88
2017-06-03T03:35:16.361Z,1003.88
2017-06-03T03:36:17.789Z,1003.85
2017-06-03T03:37:19.215Z,1003.83
2017-06-03T03:38:20.648Z,1003.86
2017-06-03T03:39:22.079Z,1003.85
2017-06-03T03:40:23.507Z,1003.80
2017-06-03T03:41:24.942Z,1003.83
2017-06-03T03:42:26.375Z,1003.87
2017-06-03T03:43:27.806Z,1003.86
2017-06-03T03:44:29.245Z,1003.93
2017-06-03T03:45:30.660Z,1003.97
2017-06-03T03:46:32.094Z,1004.06
2017-06-03T03:47:33.525Z,1004.11
2017-06-03T03:48:34.958Z,1004.14
2017-06-03T03:49:36.386Z,1004.13
2017-06-03T03:50:37.813Z,1004.16
2017-06-03T03:51:39.244Z,1004.16
2017-06-03T03:52:40.674Z,1004.19
2017-06-03T03:53:42.097Z,1004.19
2017-06-03T03:54:43.530Z,1004.19
2017-06-03T03:55:44.961Z,1004.14
2017-06-03T03:56:46.387Z,1004.18
2017-06-03T03:57:47.810Z,1004.13
2017-06-03T03:58:49.242Z,1004.13
2017-06-03T03:59:50.680Z,1004.13
2017-06-03T04:00:52.109Z,1004.10
2017-06-03T04:01:53.548Z,1004.08
2017-06-03T04:02:54.971Z,1004.09
2017-06-03T04:03:56.405Z,1004.11
2017-06-03T04:04:57.838Z,1004.11
2017-06-03T04:05:59.268Z,1004.13
2017-06-03T04:07:00.701Z,1004.12
2017-06-03T04:08:02.122Z,1004.19
2017-06-03T04:09:03.550Z,1004.15
2017-06-03T04:10:04.981Z,1004.18
2017-06-03T04:11:06.422Z,1004.19
2017-06-03T04:12:07.855Z,1004.19
2017-06-03T04:13:09.290Z,1004.21
2017-06-03T04:14:10.723Z,1004.20
2017-06-03T04:15:12.148Z,1004.20
2017-06-03T04:16:13.573Z,1004.14
2017-06-03T04:17:15.003Z,1004.09
2017-06-03T04:18:16.431Z,1004.13
2017-06-03T04:19:17.863Z,1004.11
2017-06-03T04:20:19.286Z,1004.11
2017-06-03T04:21:20.717Z,1004.10
2017-06-03T04:22:22.150Z,1004.11
2017-06-03T04:23:23.572Z,1004.11
2017-06-03T04:24:25.002Z,1004.09
2017-06-03T04:25:26.431Z,1004.11
2017-06-03T04:26:27.859Z,1004.12
2017-06-03T04:27:29.286Z,1004.15
2017-06-03T04:28:30.713Z,1004.11
2017-06-03T04:29:32.146Z,1004.07
2017-06-03T04:30:33.589Z,1004.10
2017-06-03T04:31:35.015Z,1004.04
2017-06-03T04:32:36.447Z,1004.08
2017-06-03T04:33:37.874Z,1004.05
2017-06-03T04:34:39.306Z,1004.12
2017-06-03T04:35:40.733Z,1004.05
2017-06-03T04:36:42.156Z,1004.05
2017-06-03T04:37:43.588Z,1004.07
2017-06-03T04:38:45.013Z,1004.04
2017-06-03T04:39:46.440Z,1004.04
2017-06-03T04:40:47.873Z,1004.07
2017-06-03T04:41:49.305Z,1004.08
2017-06-03T04:42:50.737Z,1004.04
2017-06-03T04:43:52.171Z,1004.05
2017-06-03T04:44:53.597Z,1004.01
2017-06-03T04:45:55.028Z,1004.06
2017-06-03T04:46:56.455Z,1004.08
2017-06-03T04:47:57.889Z,1004.03
2017-06-03T04:48:59.316Z,1004.08
2017-06-03T04:50:01.437Z,1004.09
2017-06-03T04:51:02.867Z,1004.12
2017-06-03T04:52:04.294Z,1004.09
2017-06-03T04:53:05.796Z,1004.11
2017-06-03T04:54:07.251Z,1004.09
2017-06-03T04:55:08.689Z,1004.11
2017-06-03T04:56:10.114Z,1004.13
2017-06-03T04:57:11.549Z,1004.14
2017-06-03T04:58:12.999Z,1004.15
2017-06-03T04:59:14.421Z,1004.14
2017-06-03T05:00:15.862Z,1004.13
2017-06-03T05:01:17.316Z,1004.11
2017-06-03T05:02:18.747Z,1004.10
2017-06-03T05:03:20.171Z,1004.06
2017-06-03T05:04:21.615Z,1004.09
2017-06-03T05:05:23.051Z,1004.09
2017-06-03T05:06:24.480Z,1004.08
2017-06-03T05:07:25.911Z,1004.03
2017-06-03T05:08:27.351Z,1004.03
2017-06-03T05:09:28.867Z,1004.04
2017-06-03T05:10:30.307Z,1004.03
2017-06-03T05:11:31.746Z,1004.04
2017-06-03T05:12:33.190Z,1003.99
2017-06-03T05:13:34.625Z,1004.02
2017-06-03T05:14:36.057Z,1004.01
2017-06-03T05:15:37.504Z,1003.97
2017-06-03T05:16:38.946Z,1004.02
2017-06-03T05:17:40.374Z,1004.04
2017-06-03T05:18:41.816Z,1004.06
2017-06-03T05:19:43.248Z,1004.08
2017-06-03T05:20:44.684Z,1004.08
2017-06-03T05:21:46.116Z,1004.10
2017-06-03T05:22:47.550Z,1004.12
2017-06-03T05:23:48.982Z,1004.12
2017-06-03T05:24:50.414Z,1004.13
2017-06-03T05:25:51.841Z,1004.13
2017-06-03T05:26:53.268Z,1004.16
2017-06-03T05:27:54.698Z,1004.19
2017-06-03T05:28:56.130Z,1004.20
2017-06-03T05:29:57.566Z,1004.16
2017-06-03T05:30:59.006Z,1004.17
2017-06-03T05:32:00.436Z,1004.19
2017-06-03T05:33:01.866Z,1004.15
2017-06-03T05:34:03.295Z,1004.13
2017-06-03T05:35:04.731Z,1004.12
2017-06-03T05:36:06.175Z,1004.10
2017-06-03T05:37:07.598Z,1004.09
2017-06-03T05:38:09.028Z,1004.08
2017-06-03T05:39:10.463Z,1004.08
2017-06-03T05:40:11.896Z,1004.17
2017-06-03T05:41:13.335Z,1004.21
2017-06-03T05:42:14.771Z,1004.24
2017-06-03T05:43:16.194Z,1004.32
2017-06-03T05:44:17.627Z,1004.30
2017-06-03T05:45:19.058Z,1004.31
2017-06-03T05:46:20.490Z,1004.28
2017-06-03T05:47:21.924Z,1004.32
2017-06-03T05:48:23.358Z,1004.28
2017-06-03T05:49:24.798Z,1004.31
2017-06-03T05:50:26.225Z,1004.31
2017-06-03T05:51:27.657Z,1004.32
2017-06-03T05:52:29.136Z,1004.29
2017-06-03T05:53:30.566Z,1004.29
2017-06-03T05:54:32.012Z,1004.25
2017-06-03T05:55:33.446Z,1004.24
2017-06-03T05:56:34.877Z,1004.24
2017-06-03T05:57:36.305Z,1004.28
2017-06-03T05:58:37.747Z,1004.29
2017-06-03T05:59:39.175Z,1004.24
2017-06-03T06:00:40.603Z,1004.27
2017-06-03T06:01:42.028Z,1004.25
2017-06-03T06:02:43.467Z,1004.21
2017-06-03T06:03:44.897Z,1004.20
2017-06-03T06:04:46.335Z,1004.18
2017-06-03T06:05:47.779Z,1004.22
2017-06-03T06:06:49.216Z,1004.22
2017-06-03T06:07:50.643Z,1004.21
2017-06-03T06:08:52.077Z,1004.24
2017-06-03T06:09:53.507Z,1004.25
2017-06-03T06:10:54.937Z,1004.20
2017-06-03T06:11:56.368Z,1004.20
2017-06-03T06:12:57.801Z,1004.23
2017-06-03T06:13:59.237Z,1004.22
2017-06-03T06:15:00.662Z,1004.27
2017-06-03T06:16:02.102Z,1004.27
2017-06-03T06:17:03.543Z,1004.25
2017-06-03T06:18:04.972Z,1004.26
2017-06-03T06:19:06.408Z,1004.29
2017-06-03T06:20:07.833Z,1004.30
2017-06-03T06:21:09.271Z,1004.32
2017-06-03T06:22:10.695Z,1004.29
2017-06-03T06:23:12.127Z,1004.32
2017-06-03T06:24:13.556Z,1004.28
2017-06-03T06:25:14.985Z,1004.35
2017-06-03T06:26:16.417Z,1004.32
2017-06-03T06:27:17.846Z,1004.35
2017-06-03T06:28:19.275Z,1004.36
2017-06-03T06:29:20.709Z,1004.30
2017-06-03T06:30:22.146Z,1004.33
2017-06-03T06:31:23.581Z,1004.34
2017-06-03T06:32:25.010Z,1004.27
2017-06-03T06:33:26.434Z,1004.25
2017-06-03T06:34:27.861Z,1004.28
2017-06-03T06:35:29.299Z,1004.21
2017-06-03T06:36:30.726Z,1004.21
2017-06-03T06:37:32.162Z,1004.26
2017-06-03T06:38:33.592Z,1004.25
2017-06-03T06:39:35.029Z,1004.28
2017-06-03T06:40:36.456Z,1004.22
2017-06-03T06:41:37.883Z,1004.24
2017-06-03T06:42:39.319Z,1004.27
2017-06-03T06:43:40.746Z,1004.25
2017-06-03T06:44:42.174Z,1004.25
2017-06-03T06:45:43.694Z,1004.31
2017-06-03T06:46:45.172Z,1004.25
2017-06-03T06:47:46.616Z,1004.28
2017-06-03T06:48:48.045Z,1004.26
2017-06-03T06:49:49.480Z,1004.23
2017-06-03T06:50:50.909Z,1004.27
2017-06-03T06:51:52.337Z,1004.26
2017-06-03T06:52:53.770Z,1004.28
2017-06-03T06:53:55.205Z,1004.28
2017-06-03T06:54:56.649Z,1004.30
2017-06-03T06:55:58.076Z,1004.33
2017-06-03T06:56:59.520Z,1004.34
2017-06-03T06:58:00.953Z,1004.35
2017-06-03T06:59:02.390Z,1004.38
2017-06-03T07:00:03.817Z,1004.41
2017-06-03T07:01:05.266Z,1004.39
2017-06-03T07:02:06.697Z,1004.36
2017-06-03T07:03:08.139Z,1004.37
2017-06-03T07:04:09.580Z,1004.36
2017-06-03T07:05:11.115Z,1004.33
2017-06-03T07:06:12.546Z,1004.30
2017-06-03T07:07:13.981Z,1004.30
2017-06-03T07:08:15.418Z,1004.31
2017-06-03T07:09:16.857Z,1004.30
2017-06-03T07:10:18.287Z,1004.28
2017-06-03T07:11:19.734Z,1004.30
2017-06-03T07:12:21.166Z,1004.27
2017-06-03T07:13:22.619Z,1004.30
2017-06-03T07:14:24.026Z,1004.29
2017-06-03T07:15:25.468Z,1004.32
2017-06-03T07:16:26.989Z,1004.30
2017-06-03T07:17:28.421Z,1004.30
2017-06-03T07:18:29.849Z,1004.31
2017-06-03T07:19:31.286Z,1004.32
2017-06-03T07:20:32.727Z,1004.35
2017-06-03T07:21:34.155Z,1004.34
2017-06-03T07:22:35.588Z,1004.34
2017-06-03T07:23:37.022Z,1004.39
2017-06-03T07:24:38.459Z,1004.40
2017-06-03T07:25:39.891Z,1004.43
2017-06-03T07:26:41.334Z,1004.44
2017-06-03T07:27:42.826Z,1004.40
2017-06-03T07:28:44.256Z,1004.39
2017-06-03T07:29:45.697Z,1004.37
2017-06-03T07:30:47.142Z,1004.36
2017-06-03T07:31:48.574Z,1004.39
2017-06-03T07:32:50.017Z,1004.34
2017-06-03T07:33:51.514Z,1004.36
2017-06-03T07:34:52.955Z,1004.32
2017-06-03T07:35:54.385Z,1004.28
2017-06-03T07:36:55.814Z,1004.30
2017-06-03T07:37:57.331Z,1004.29
2017-06-03T07:38:58.762Z,1004.25
2017-06-03T07:40:00.197Z,1004.27
2017-06-03T07:41:01.627Z,1004.30
2017-06-03T07:42:03.064Z,1004.25
2017-06-03T07:43:04.494Z,1004.29
2017-06-03T07:44:05.930Z,1004.28
2017-06-03T07:45:07.452Z,1004.28
2017-06-03T07:46:08.878Z,1004.30
2017-06-03T07:47:10.313Z,1004.30
2017-06-03T07:48:11.751Z,1004.31
2017-06-03T07:49:13.183Z,1004.33
2017-06-03T07:50:14.617Z,1004.32
2017-06-03T07:51:16.056Z,1004.34
2017-06-03T07:52:17.514Z,1004.28
2017-06-03T07:53:19.667Z,1004.28
2017-06-03T07:54:21.096Z,1004.28
2017-06-03T07:55:22.529Z,1004.27
2017-06-03T07:56:24.585Z,1004.26
2017-06-03T07:57:26.016Z,1004.29
2017-06-03T07:58:27.543Z,1004.26
2017-06-03T07:59:28.975Z,1004.29
2017-06-03T08:00:30.409Z,1004.26
2017-06-03T08:01:31.838Z,1004.24
2017-06-03T08:02:33.273Z,1004.25
2017-06-03T08:03:34.704Z,1004.25
2017-06-03T08:04:36.141Z,1004.27
2017-06-03T08:05:37.568Z,1004.25
2017-06-03T08:06:39.002Z,1004.23
2017-06-03T08:07:40.439Z,1004.21
2017-06-03T08:08:41.866Z,1004.22
2017-06-03T08:09:43.299Z,1004.17
2017-06-03T08:10:44.736Z,1004.22
2017-06-03T08:11:46.169Z,1004.22
2017-06-03T08:12:47.599Z,1004.20
2017-06-03T08:13:49.031Z,1004.20
2017-06-03T08:14:50.465Z,1004.22
2017-06-03T08:15:51.895Z,1004.21
2017-06-03T08:16:53.334Z,1004.19
2017-06-03T08:17:54.773Z,1004.20
2017-06-03T08:18:56.208Z,1004.14
2017-06-03T08:19:57.649Z,1004.20
2017-06-03T08:20:59.083Z,1004.21
2017-06-03T08:22:00.520Z,1004.21
2017-06-03T08:23:01.950Z,1004.19
2017-06-03T08:24:03.388Z,1004.12
2017-06-03T08:25:04.831Z,1004.18
2017-06-03T08:26:06.269Z,1004.20
2017-06-03T08:27:07.705Z,1004.20
2017-06-03T08:28:09.137Z,1004.23
2017-06-03T08:29:10.578Z,1004.18
2017-06-03T08:30:12.013Z,1004.22
2017-06-03T08:31:13.452Z,1004.16
2017-06-03T08:32:14.888Z,1004.18
2017-06-03T08:33:16.320Z,1004.16
2017-06-03T08:34:17.759Z,1004.19
2017-06-03T08:35:19.200Z,1004.21
2017-06-03T08:36:20.644Z,1004.23
2017-06-03T08:37:22.080Z,1004.17
2017-06-03T08:38:23.512Z,1004.14
2017-06-03T08:39:24.959Z,1004.21
2017-06-03T08:40:26.393Z,1004.22
2017-06-03T08:41:27.834Z,1004.17
2017-06-03T08:42:29.268Z,1004.16
2017-06-03T08:43:30.700Z,1004.21
2017-06-03T08:44:32.139Z,1004.18
2017-06-03T08:45:33.574Z,1004.18
2017-06-03T08:46:35.067Z,1004.14
2017-06-03T08:47:36.506Z,1004.15
2017-06-03T08:48:37.932Z,1004.21
2017-06-03T08:49:39.398Z,1004.19
2017-06-03T08:50:40.814Z,1004.10
2017-06-03T08:51:42.250Z,1004.14
2017-06-03T08:52:43.690Z,1004.14
2017-06-03T08:53:45.160Z,1004.05
2017-06-03T08:54:46.590Z,1004.04
2017-06-03T08:55:48.027Z,1004.08
2017-06-03T08:56:49.516Z,1004.10
2017-06-03T08:57:50.949Z,1004.13
2017-06-03T08:58:52.391Z,1004.09
2017-06-03T08:59:53.848Z,1004.05
2017-06-03T09:00:55.304Z,1004.03
2017-06-03T09:01:57.402Z,1004.00
2017-06-03T09:02:58.844Z,1004.03
2017-06-03T09:04:00.276Z,1004.04
2017-06-03T09:05:01.715Z,1004.02
2017-06-03T09:06:03.145Z,1004.04
2017-06-03T09:07:04.579Z,1004.02
2017-06-03T09:08:06.024Z,1004.01
2017-06-03T09:09:07.455Z,1003.99
2017-06-03T09:10:08.897Z,1004.01
2017-06-03T09:11:10.332Z,1003.99
2017-06-03T09:12:11.762Z,1003.97
2017-06-03T09:13:13.196Z,1003.99
2017-06-03T09:14:14.640Z,1003.94
2017-06-03T09:15:16.074Z,1003.99
2017-06-03T09:16:17.522Z,1003.92
2017-06-03T09:17:18.966Z,1003.93
2017-06-03T09:18:20.943Z,1003.89
2017-06-03T09:19:22.378Z,1003.90
2017-06-03T09:20:23.820Z,1003.92
2017-06-03T09:21:25.250Z,1003.89
2017-06-03T09:22:26.688Z,1003.92
2017-06-03T09:23:28.121Z,1003.92
2017-06-03T09:24:29.561Z,1003.90
2017-06-03T09:25:31.002Z,1003.90
2017-06-03T09:26:32.441Z,1003.91
2017-06-03T09:27:33.881Z,1003.86
2017-06-03T09:28:35.317Z,1003.91
2017-06-03T09:29:36.752Z,1003.94
2017-06-03T09:30:39.069Z,1003.89
2017-06-03T09:31:41.925Z,1003.91
2017-06-03T09:32:43.363Z,1003.90
2017-06-03T09:33:44.800Z,1003.89
2017-06-03T09:34:46.229Z,1003.91
2017-06-03T09:35:47.669Z,1003.88
2017-06-03T09:36:49.097Z,1003.90
2017-06-03T09:37:50.549Z,1003.88
2017-06-03T09:38:51.987Z,1003.92
2017-06-03T09:39:53.427Z,1003.89
2017-06-03T09:40:54.859Z,1003.88
2017-06-03T09:41:56.299Z,1003.89
2017-06-03T09:42:57.736Z,1003.89
2017-06-03T09:43:59.169Z,1003.86
2017-06-03T09:45:00.598Z,1003.89
2017-06-03T09:46:02.041Z,1003.84
2017-06-03T09:47:03.479Z,1003.89
2017-06-03T09:48:04.918Z,1003.85
2017-06-03T09:49:06.353Z,1003.87
2017-06-03T09:50:07.787Z,1003.91
2017-06-03T09:51:09.232Z,1003.87
2017-06-03T09:52:10.673Z,1003.88
2017-06-03T09:53:12.099Z,1003.82
2017-06-03T09:54:13.540Z,1003.88
2017-06-03T09:55:14.976Z,1003.85
2017-06-03T09:56:16.408Z,1003.85
2017-06-03T09:57:17.847Z,1003.87
2017-06-03T09:58:19.290Z,1003.83
2017-06-03T09:59:20.728Z,1003.84
2017-06-03T10:00:22.171Z,1003.91
2017-06-03T10:01:23.609Z,1003.91
2017-06-03T10:02:25.043Z,1003.91
2017-06-03T10:03:26.477Z,1003.90
2017-06-03T10:04:27.919Z,1003.92
2017-06-03T10:05:29.353Z,1003.92
2017-06-03T10:06:30.783Z,1003.91
2017-06-03T10:07:32.215Z,1003.90
2017-06-03T10:08:33.660Z,1003.92
2017-06-03T10:09:35.103Z,1003.93
2017-06-03T10:10:36.528Z,1003.91
2017-06-03T10:11:37.960Z,1003.84
2017-06-03T10:12:39.405Z,1003.81
2017-06-03T10:13:40.845Z,1003.87
2017-06-03T10:14:42.282Z,1003.83
2017-06-03T10:15:43.738Z,1003.84
2017-06-03T10:16:45.168Z,1003.81
2017-06-03T10:17:46.607Z,1003.77
2017-06-03T10:18:48.043Z,1003.75
2017-06-03T10:19:49.479Z,1003.77
2017-06-03T10:20:52.388Z,1003.76
2017-06-03T10:21:53.824Z,1003.75
2017-06-03T10:22:55.262Z,1003.69
2017-06-03T10:23:56.692Z,1003.71
2017-06-03T10:24:58.130Z,1003.73
2017-06-03T10:25:59.571Z,1003.68
2017-06-03T10:27:01.009Z,1003.73
2017-06-03T10:28:02.451Z,1003.72
2017-06-03T10:29:03.887Z,1003.74
2017-06-03T10:30:05.790Z,1003.71
2017-06-03T10:31:07.236Z,1003.69
2017-06-03T10:32:08.670Z,1003.70
2017-06-03T10:33:10.606Z,1003.72
2017-06-03T10:34:12.039Z,1003.74
2017-06-03T10:35:13.485Z,1003.73
2017-06-03T10:36:14.918Z,1003.73
2017-06-03T10:37:16.361Z,1003.73
2017-06-03T10:38:17.798Z,1003.74
2017-06-03T10:39:19.241Z,1003.66
2017-06-03T10:40:20.678Z,1003.67
2017-06-03T10:41:22.112Z,1003.74
2017-06-03T10:42:23.551Z,1003.76
2017-06-03T10:43:24.987Z,1003.75
2017-06-03T10:44:26.427Z,1003.71
2017-06-03T10:45:27.867Z,1003.70
2017-06-03T10:46:29.304Z,1003.71
2017-06-03T10:47:30.750Z,1003.75
2017-06-03T10:48:32.185Z,1003.71
2017-06-03T10:49:33.630Z,1003.74
2017-06-03T10:50:35.071Z,1003.72
2017-06-03T10:51:36.504Z,1003.79
2017-06-03T10:52:38.607Z,1003.74
2017-06-03T10:53:39.323Z,1003.72
2017-06-03T10:54:40.764Z,1003.70
2017-06-03T10:55:42.201Z,1003.72
2017-06-03T10:56:43.638Z,1003.66
2017-06-03T10:57:45.067Z,1003.64
2017-06-03T10:58:46.506Z,1003.65
2017-06-03T10:59:47.946Z,1003.68
2017-06-03T11:00:49.388Z,1003.67
2017-06-03T11:01:50.831Z,1003.61
2017-06-03T11:02:52.269Z,1003.52
2017-06-03T11:03:53.713Z,1003.52
2017-06-03T11:04:55.148Z,1003.53
2017-06-03T11:05:56.585Z,1003.53
2017-06-03T11:06:58.020Z,1003.57
2017-06-03T11:07:59.457Z,1003.52
2017-06-03T11:09:00.904Z,1003.49
2017-06-03T11:10:02.346Z,1003.40
2017-06-03T11:11:03.779Z,1003.49
2017-06-03T11:12:05.220Z,1003.44
2017-06-03T11:13:06.659Z,1003.43
2017-06-03T11:14:08.100Z,1003.40
2017-06-03T11:15:09.534Z,1003.42
2017-06-03T11:16:10.976Z,1003.40
2017-06-03T11:17:12.415Z,1003.38
2017-06-03T11:18:13.859Z,1003.39
2017-06-03T11:19:15.300Z,1003.35
2017-06-03T11:20:16.735Z,1003.29
2017-06-03T11:21:18.182Z,1003.34
2017-06-03T11:22:19.618Z,1003.28
2017-06-03T11:23:21.055Z,1003.23
2017-06-03T11:24:22.500Z,1003.27
2017-06-03T11:25:23.946Z,1003.25
2017-06-03T11:26:25.385Z,1003.32
2017-06-03T11:27:26.823Z,1003.25
2017-06-03T11:28:28.256Z,1003.21
2017-06-03T11:29:29.688Z,1003.28
2017-06-03T11:30:31.121Z,1003.27
2017-06-03T11:31:32.570Z,1003.27
2017-06-03T11:32:33.997Z,1003.24
2017-06-03T11:33:35.436Z,1003.23
2017-06-03T11:34:36.873Z,1003.20
2017-06-03T11:35:38.304Z,1003.21
2017-06-03T11:36:39.745Z,1003.17
2017-06-03T11:37:41.203Z,1003.17
2017-06-03T11:38:42.641Z,1003.19
2017-06-03T11:39:44.079Z,1003.20
2017-06-03T11:40:45.521Z,1003.16
2017-06-03T11:41:46.963Z,1003.17
2017-06-03T11:42:48.403Z,1003.20
2017-06-03T11:43:49.841Z,1003.15
2017-06-03T11:44:51.276Z,1003.19
2017-06-03T11:45:52.713Z,1003.14
2017-06-03T11:46:54.147Z,1003.14
2017-06-03T11:47:55.585Z,1003.15
2017-06-03T11:48:57.029Z,1003.14
2017-06-03T11:49:58.468Z,1003.06
2017-06-03T11:50:59.903Z,1003.08
2017-06-03T11:52:01.345Z,1003.06
2017-06-03T11:53:02.787Z,1003.05
2017-06-03T11:54:04.707Z,1003.06
2017-06-03T11:55:06.144Z,1003.05
2017-06-03T11:56:07.588Z,1002.98
2017-06-03T11:57:09.029Z,1002.99
2017-06-03T11:58:10.469Z,1002.99
2017-06-03T11:59:11.923Z,1002.97
2017-06-03T12:00:13.355Z,1002.95
2017-06-03T12:01:14.795Z,1002.92
2017-06-03T12:02:16.233Z,1002.88
2017-06-03T12:03:17.672Z,1002.93
2017-06-03T12:04:19.109Z,1002.90
2017-06-03T12:05:20.551Z,1003.00
2017-06-03T12:06:21.990Z,1002.95
2017-06-03T12:07:23.430Z,1002.98
2017-06-03T12:08:24.875Z,1002.94
2017-06-03T12:09:26.324Z,1002.85
2017-06-03T12:10:27.752Z,1002.84
2017-06-03T12:11:29.194Z,1002.87
2017-06-03T12:12:30.630Z,1002.85
2017-06-03T12:13:32.067Z,1002.87
2017-06-03T12:14:33.501Z,1002.86
2017-06-03T12:15:34.937Z,1002.83
2017-06-03T12:16:36.380Z,1002.80
2017-06-03T12:17:37.823Z,1002.78
2017-06-03T12:18:39.262Z,1002.79
2017-06-03T12:19:40.700Z,1002.80
2017-06-03T12:20:42.143Z,1002.83
2017-06-03T12:21:43.584Z,1002.82
2017-06-03T12:22:45.020Z,1002.79